Time;durP1;ratioP1;P1;durP2;ratioP2;P2;SDS_P1;SDS_P2;PMS_P1;PMS_P2;Temp;Humidity;BMP_temperature;BMP_pressure;BME280_temperature;BME280_humidity;BME280_pressure;Samples;Min_cycle;Max_cycle;Signal;HPM_P1;HPM_P2
2024/02/21 00:00:17;;;;;;;21.90;14.23;;;;;;;;;;5085805;28;20191;-84
2024/02/21 00:02:43;;;;;;;23.57;15.33;;;;;;;;;;5094929;28;20283;-84
2024/02/21 00:05:10;;;;;;;19.87;13.73;;;;;;;;;;5111894;28;20191;-85
2024/02/21 00:07:37;;;;;;;17.97;12.93;;;;;;;;;;5091562;28;20200;-85
2024/02/21 00:10:04;;;;;;;21.07;14.57;;;;;;;;;;5103847;28;20195;-85
2024/02/21 00:12:31;;;;;;;23.87;14.20;;;;;;;;;;5094613;28;20677;-85
2024/02/21 00:14:59;;;;;;;17.33;13.47;;;;;;;;;;5093462;28;20197;-86
2024/02/21 00:17:26;;;;;;;21.87;14.37;;;;;;;;;;5080637;28;20682;-84
2024/02/21 00:19:53;;;;;;;24.17;15.47;;;;;;;;;;5095040;28;20690;-86
2024/02/21 00:22:20;;;;;;;25.60;15.47;;;;;;;;;;5095561;28;20200;-86
2024/02/21 00:24:46;;;;;;;25.10;14.30;;;;;;;;;;5094741;28;20220;-86
2024/02/21 00:27:13;;;;;;;21.67;14.77;;;;;;;;;;5094826;28;20196;-85
2024/02/21 00:29:40;;;;;;;20.50;14.00;;;;;;;;;;5095093;28;20591;-84
2024/02/21 00:32:09;;;;;;;17.90;12.97;;;;;;;;;;5094923;28;20204;-86
2024/02/21 00:34:36;;;;;;;21.73;14.37;;;;;;;;;;5094340;28;20224;-86
2024/02/21 00:37:03;;;;;;;23.30;15.40;;;;;;;;;;5094671;28;20227;-86
2024/02/21 00:39:30;;;;;;;22.63;14.97;;;;;;;;;;5094615;28;20657;-86
2024/02/21 00:41:56;;;;;;;19.43;14.37;;;;;;;;;;5094532;28;20637;-86
2024/02/21 00:44:23;;;;;;;18.90;13.47;;;;;;;;;;5094806;28;20250;-85
2024/02/21 00:46:50;;;;;;;19.50;14.23;;;;;;;;;;5103957;28;20206;-86
2024/02/21 00:49:19;;;;;;;25.60;15.03;;;;;;;;;;5110578;28;20690;-86
2024/02/21 00:51:45;;;;;;;18.30;13.10;;;;;;;;;;5094634;28;20257;-85
2024/02/21 00:54:12;;;;;;;21.53;14.13;;;;;;;;;;5093816;28;20747;-85
2024/02/21 00:56:39;;;;;;;20.80;15.43;;;;;;;;;;5094290;28;20199;-85
2024/02/21 00:59:07;;;;;;;22.30;14.30;;;;;;;;;;5085721;28;20192;-85
2024/02/21 01:01:34;;;;;;;21.00;16.00;;;;;;;;;;5097711;28;20208;-84
2024/02/21 01:04:01;;;;;;;27.10;16.03;;;;;;;;;;5101031;28;20224;-84
2024/02/21 01:06:29;;;;;;;21.50;14.37;;;;;;;;;;5084460;28;20197;-84
2024/02/21 01:08:56;;;;;;;20.37;13.33;;;;;;;;;;5091695;28;20609;-85
2024/02/21 01:11:22;;;;;;;19.20;13.70;;;;;;;;;;5094008;28;20192;-86
2024/02/21 01:13:49;;;;;;;23.87;15.07;;;;;;;;;;5095310;28;20659;-86
2024/02/21 01:16:16;;;;;;;20.00;14.50;;;;;;;;;;5101654;28;20200;-86
2024/02/21 01:18:43;;;;;;;24.37;14.03;;;;;;;;;;5093493;28;20196;-86
2024/02/21 01:21:09;;;;;;;22.47;15.37;;;;;;;;;;5093898;28;20200;-86
2024/02/21 01:23:38;;;;;;;21.10;15.43;;;;;;;;;;5093832;28;20226;-85
2024/02/21 01:26:08;;;;;;;18.90;14.13;;;;;;;;;;5093666;28;20560;-86
2024/02/21 01:28:34;;;;;;;21.53;15.17;;;;;;;;;;5093899;28;20199;-85
2024/02/21 01:31:01;;;;;;;23.97;15.77;;;;;;;;;;5086763;28;20193;-86
2024/02/21 01:33:30;;;;;;;22.47;14.50;;;;;;;;;;5092192;28;20228;-86
2024/02/21 01:35:56;;;;;;;25.03;14.63;;;;;;;;;;5093564;28;20211;-86
2024/02/21 01:38:23;;;;;;;20.00;14.47;;;;;;;;;;5093845;28;20200;-86
2024/02/21 01:40:51;;;;;;;21.90;13.73;;;;;;;;;;5093755;28;20200;-85
2024/02/21 01:43:20;;;;;;;21.27;13.53;;;;;;;;;;5093177;28;20196;-85
2024/02/21 01:45:49;;;;;;;23.43;14.97;;;;;;;;;;5102263;28;20192;-86
2024/02/21 01:48:16;;;;;;;22.13;14.00;;;;;;;;;;5113910;28;20199;-85
2024/02/21 01:50:42;;;;;;;18.07;13.20;;;;;;;;;;5098476;28;20272;-86
2024/02/21 01:53:09;;;;;;;20.00;13.47;;;;;;;;;;5093166;28;20245;-86
2024/02/21 01:55:36;;;;;;;20.17;13.80;;;;;;;;;;5106983;28;20214;-85
2024/02/21 01:58:04;;;;;;;21.80;15.13;;;;;;;;;;5112382;28;20204;-86
2024/02/21 02:00:32;;;;;;;19.63;13.53;;;;;;;;;;5102031;28;20197;-85
2024/02/21 02:02:59;;;;;;;20.60;13.93;;;;;;;;;;5099720;28;20194;-85
2024/02/21 02:05:26;;;;;;;20.03;13.03;;;;;;;;;;5081814;28;20228;-92
2024/02/21 02:07:53;;;;;;;17.20;13.03;;;;;;;;;;5113302;28;20687;-85
2024/02/21 02:10:20;;;;;;;19.00;13.97;;;;;;;;;;5081550;28;20205;-86
2024/02/21 02:12:47;;;;;;;22.00;15.27;;;;;;;;;;5082824;28;20200;-84
2024/02/21 02:15:15;;;;;;;22.37;16.63;;;;;;;;;;5093102;28;20200;-86
2024/02/21 02:17:42;;;;;;;24.50;15.27;;;;;;;;;;5101933;28;20257;-86
2024/02/21 02:20:13;;;;;;;17.90;13.60;;;;;;;;;;5101162;28;20264;-85
2024/02/21 02:22:40;;;;;;;17.07;13.47;;;;;;;;;;5098816;28;20206;-86
2024/02/21 02:25:11;;;;;;;21.10;14.77;;;;;;;;;;5076774;28;20683;-85
2024/02/21 02:27:44;;;;;;;21.07;15.23;;;;;;;;;;5092566;28;20727;-84
2024/02/21 02:30:12;;;;;;;22.20;13.67;;;;;;;;;;5072868;28;20197;-86
2024/02/21 02:32:39;;;;;;;22.27;14.17;;;;;;;;;;5092621;28;20200;-86
2024/02/21 02:35:07;;;;;;;30.47;22.63;;;;;;;;;;5092816;28;20625;-86
2024/02/21 02:37:34;;;;;;;23.00;17.10;;;;;;;;;;5101381;28;20195;-85
2024/02/21 02:40:01;;;;;;;27.23;16.23;;;;;;;;;;5087397;28;20205;-86
2024/02/21 02:42:29;;;;;;;21.87;14.43;;;;;;;;;;5105659;28;20199;-86
2024/02/21 02:44:57;;;;;;;20.27;13.77;;;;;;;;;;5092371;28;20228;-85
2024/02/21 02:47:23;;;;;;;17.83;13.53;;;;;;;;;;5091879;28;20720;-85
2024/02/21 02:49:50;;;;;;;20.40;13.80;;;;;;;;;;5091802;28;20623;-86
2024/02/21 02:52:17;;;;;;;22.93;14.97;;;;;;;;;;5092339;28;20705;-86
2024/02/21 02:54:44;;;;;;;20.27;14.00;;;;;;;;;;5092323;28;20537;-86
2024/02/21 02:57:11;;;;;;;22.77;13.60;;;;;;;;;;5092878;28;20287;-85
2024/02/21 02:59:39;;;;;;;20.17;13.97;;;;;;;;;;5108638;28;20256;-86
2024/02/21 03:02:06;;;;;;;26.83;18.63;;;;;;;;;;5091803;28;20196;-86
2024/02/21 03:04:35;;;;;;;23.47;16.00;;;;;;;;;;5091622;28;20223;-86
2024/02/21 03:07:02;;;;;;;65.33;38.07;;;;;;;;;;5091816;28;20188;-86
2024/02/21 03:09:29;;;;;;;65.23;42.17;;;;;;;;;;5091721;28;20658;-85
2024/02/21 03:12:02;;;;;;;68.67;43.63;;;;;;;;;;5091723;28;20208;-86
2024/02/21 03:14:29;;;;;;;33.97;24.03;;;;;;;;;;5091701;28;20601;-85
2024/02/21 03:16:57;;;;;;;23.73;16.83;;;;;;;;;;5091478;28;20617;-81
2024/02/21 03:19:23;;;;;;;24.83;16.70;;;;;;;;;;5091422;28;20728;-81
2024/02/21 03:21:50;;;;;;;23.83;14.73;;;;;;;;;;5108308;28;20689;-81
2024/02/21 03:24:17;;;;;;;21.30;14.87;;;;;;;;;;5090800;28;20724;-81
2024/02/21 03:26:44;;;;;;;21.73;15.83;;;;;;;;;;5084951;28;20319;-82
2024/02/21 03:29:11;;;;;;;22.20;14.90;;;;;;;;;;5087472;28;20196;-82
2024/02/21 03:31:38;;;;;;;24.30;15.40;;;;;;;;;;5075598;28;20192;-81
2024/02/21 03:34:06;;;;;;;24.40;16.67;;;;;;;;;;5091281;28;20227;-81
2024/02/21 03:36:33;;;;;;;20.20;15.27;;;;;;;;;;5088461;28;20641;-81
2024/02/21 03:39:00;;;;;;;23.60;16.13;;;;;;;;;;5089905;28;20681;-81
2024/02/21 03:41:27;;;;;;;24.67;15.80;;;;;;;;;;5091395;28;20201;-81
2024/02/21 03:43:54;;;;;;;22.77;15.07;;;;;;;;;;5079573;28;20200;-81
2024/02/21 03:46:21;;;;;;;22.60;14.57;;;;;;;;;;5077235;28;20203;-81
2024/02/21 03:48:47;;;;;;;23.33;15.37;;;;;;;;;;5096793;28;20196;-81
2024/02/21 03:51:16;;;;;;;21.97;15.00;;;;;;;;;;5094571;28;20192;-81
2024/02/21 03:53:42;;;;;;;23.70;15.40;;;;;;;;;;5085380;28;20199;-81
2024/02/21 03:56:09;;;;;;;23.37;15.90;;;;;;;;;;5095708;28;20204;-82
2024/02/21 03:58:36;;;;;;;28.47;15.53;;;;;;;;;;5078676;28;20201;-81
2024/02/21 04:01:03;;;;;;;20.33;14.80;;;;;;;;;;5083914;28;20681;-81
2024/02/21 04:03:30;;;;;;;23.03;16.33;;;;;;;;;;5088079;28;20192;-81
2024/02/21 04:05:57;;;;;;;22.23;16.27;;;;;;;;;;5097313;28;20227;-81
2024/02/21 04:08:25;;;;;;;19.67;13.80;;;;;;;;;;5097377;28;20200;-82
2024/02/21 04:10:51;;;;;;;21.03;13.13;;;;;;;;;;5098408;28;20192;-81
2024/02/21 04:13:18;;;;;;;19.27;13.43;;;;;;;;;;5097256;28;20581;-81
2024/02/21 04:15:45;;;;;;;20.73;14.17;;;;;;;;;;5107804;28;20228;-82
2024/02/21 04:18:12;;;;;;;26.93;15.40;;;;;;;;;;5104461;28;20677;-81
2024/02/21 04:20:41;;;;;;;19.13;13.83;;;;;;;;;;5097988;28;20249;-81
2024/02/21 04:23:09;;;;;;;26.03;16.57;;;;;;;;;;5082728;28;20201;-82
2024/02/21 04:25:37;;;;;;;24.07;16.10;;;;;;;;;;5118377;28;20215;-82
2024/02/21 04:28:04;;;;;;;22.97;16.70;;;;;;;;;;5099709;28;20200;-82
2024/02/21 04:30:31;;;;;;;21.43;15.30;;;;;;;;;;5105926;28;20192;-80
2024/02/21 04:32:58;;;;;;;22.10;14.63;;;;;;;;;;5097735;28;20223;-81
2024/02/21 04:35:24;;;;;;;22.53;14.97;;;;;;;;;;5102966;28;20192;-83
2024/02/21 04:37:51;;;;;;;32.57;22.43;;;;;;;;;;5098784;28;20208;-81
2024/02/21 04:40:18;;;;;;;62.33;36.77;;;;;;;;;;5098737;28;20208;-80
2024/02/21 04:42:46;;;;;;;42.00;27.57;;;;;;;;;;5096638;28;20195;-81
2024/02/21 04:45:13;;;;;;;38.70;25.33;;;;;;;;;;5089175;28;20224;-81
2024/02/21 04:47:40;;;;;;;28.33;18.13;;;;;;;;;;5077032;28;20670;-81
2024/02/21 04:50:07;;;;;;;22.70;16.50;;;;;;;;;;5087381;28;20196;-82
2024/02/21 04:52:34;;;;;;;23.20;16.27;;;;;;;;;;5098030;28;20192;-81
2024/02/21 04:55:01;;;;;;;26.53;16.70;;;;;;;;;;5093951;28;20575;-82
2024/02/21 04:57:27;;;;;;;22.57;17.20;;;;;;;;;;5097818;28;20548;-81
2024/02/21 04:59:56;;;;;;;21.10;14.43;;;;;;;;;;5090136;28;20209;-84
2024/02/21 05:02:24;;;;;;;19.73;15.37;;;;;;;;;;5083842;28;20544;-82
2024/02/21 05:04:50;;;;;;;17.93;13.83;;;;;;;;;;5093525;28;20300;-82
2024/02/21 05:07:19;;;;;;;23.07;15.73;;;;;;;;;;5093474;28;20278;-82
2024/02/21 05:09:46;;;;;;;22.37;14.23;;;;;;;;;;5093976;28;20196;-82
2024/02/21 05:12:12;;;;;;;20.80;14.67;;;;;;;;;;5092802;28;20199;-83
2024/02/21 05:14:39;;;;;;;21.67;14.93;;;;;;;;;;5093582;28;20621;-82
2024/02/21 05:17:10;;;;;;;26.57;16.30;;;;;;;;;;5093500;28;20203;-83
2024/02/21 05:19:36;;;;;;;23.43;17.43;;;;;;;;;;5093558;28;20655;-82
2024/02/21 05:22:03;;;;;;;28.83;17.07;;;;;;;;;;5078489;28;20663;-82
2024/02/21 05:24:30;;;;;;;23.60;17.03;;;;;;;;;;5082222;28;20665;-84
2024/02/21 05:26:57;;;;;;;32.60;23.90;;;;;;;;;;5085808;28;20670;-84
2024/02/21 05:29:23;;;;;;;29.17;20.47;;;;;;;;;;5111266;28;20584;-83
2024/02/21 05:31:58;;;;;;;27.43;19.43;;;;;;;;;;5089198;28;20200;-83
2024/02/21 05:34:26;;;;;;;28.97;20.33;;;;;;;;;;5080532;28;20300;-84
2024/02/21 05:36:53;;;;;;;31.33;21.53;;;;;;;;;;5078992;28;20193;-84
2024/02/21 05:39:22;;;;;;;33.37;22.13;;;;;;;;;;5077575;28;20275;-84
2024/02/21 05:41:49;;;;;;;73.77;50.67;;;;;;;;;;5093101;28;20257;-84
2024/02/21 05:44:16;;;;;;;62.77;42.70;;;;;;;;;;5094241;28;20196;-84
2024/02/21 05:46:43;;;;;;;38.33;25.43;;;;;;;;;;5092810;28;20212;-85
2024/02/21 05:49:09;;;;;;;20.07;16.90;;;;;;;;;;5091906;28;20200;-85
2024/02/21 05:51:38;;;;;;;25.60;17.30;;;;;;;;;;5101398;28;20550;-85
2024/02/21 05:54:04;;;;;;;23.20;16.60;;;;;;;;;;5095563;28;20204;-85
2024/02/21 05:56:31;;;;;;;21.20;14.57;;;;;;;;;;5092760;28;20230;-84
2024/02/21 05:58:58;;;;;;;28.20;19.97;;;;;;;;;;5092552;28;20192;-84
2024/02/21 06:01:25;;;;;;;24.97;17.93;;;;;;;;;;5092972;28;20200;-85
2024/02/21 06:03:52;;;;;;;24.40;16.47;;;;;;;;;;5092348;28;20279;-85
2024/02/21 06:06:18;;;;;;;24.03;15.53;;;;;;;;;;5093055;28;20207;-84
2024/02/21 06:08:47;;;;;;;22.90;15.83;;;;;;;;;;5092279;28;20238;-83
2024/02/21 06:11:15;;;;;;;26.67;18.00;;;;;;;;;;5092768;28;20192;-84
2024/02/21 06:13:42;;;;;;;23.80;17.73;;;;;;;;;;5092970;28;20681;-85
2024/02/21 06:16:11;;;;;;;26.43;17.03;;;;;;;;;;5092205;28;20196;-84
2024/02/21 06:18:38;;;;;;;27.40;19.17;;;;;;;;;;5092505;28;20655;-84
2024/02/21 06:21:05;;;;;;;27.17;19.90;;;;;;;;;;5105125;28;20248;-85
2024/02/21 06:23:32;;;;;;;27.37;20.50;;;;;;;;;;5093239;28;20671;-85
2024/02/21 06:26:00;;;;;;;21.93;17.90;;;;;;;;;;5092026;28;20220;-84
2024/02/21 06:28:27;;;;;;;25.90;17.43;;;;;;;;;;5098529;28;20256;-86
2024/02/21 06:30:53;;;;;;;26.10;16.10;;;;;;;;;;5085671;28;20292;-84
2024/02/21 06:33:24;;;;;;;25.50;19.17;;;;;;;;;;5099007;28;20229;-85
2024/02/21 06:35:52;;;;;;;31.40;22.23;;;;;;;;;;5086206;28;20196;-85
2024/02/21 06:38:19;;;;;;;25.93;19.03;;;;;;;;;;5092487;28;20265;-85
2024/02/21 06:40:49;;;;;;;26.67;17.70;;;;;;;;;;5091341;28;20196;-85
2024/02/21 06:43:19;;;;;;;25.03;19.03;;;;;;;;;;5079377;28;20203;-85
2024/02/21 06:45:50;;;;;;;23.97;14.13;;;;;;;;;;5105256;28;20307;-85
2024/02/21 06:48:17;;;;;;;20.80;14.10;;;;;;;;;;5100835;28;20290;-85
2024/02/21 06:50:44;;;;;;;17.50;12.77;;;;;;;;;;5098425;28;20261;-85
2024/02/21 06:53:10;;;;;;;19.20;14.00;;;;;;;;;;5094162;28;20258;-85
2024/02/21 06:55:39;;;;;;;18.97;13.93;;;;;;;;;;5098685;28;20196;-85
2024/02/21 06:58:08;;;;;;;20.97;14.73;;;;;;;;;;5081754;28;20203;-83
2024/02/21 07:00:36;;;;;;;20.57;14.70;;;;;;;;;;5091727;28;20195;-85
2024/02/21 07:03:03;;;;;;;20.07;14.37;;;;;;;;;;5091057;28;20200;-85
2024/02/21 07:05:30;;;;;;;19.17;14.03;;;;;;;;;;5091761;28;20299;-83
2024/02/21 07:07:57;;;;;;;21.80;14.93;;;;;;;;;;5092008;28;20196;-84
2024/02/21 07:10:24;;;;;;;24.43;16.37;;;;;;;;;;5091216;28;20203;-84
2024/02/21 07:12:52;;;;;;;20.63;14.10;;;;;;;;;;5091559;28;20214;-84
2024/02/21 07:15:18;;;;;;;18.03;14.40;;;;;;;;;;5091235;28;20208;-84
2024/02/21 07:17:46;;;;;;;21.07;14.10;;;;;;;;;;5102458;28;20716;-83
2024/02/21 07:20:13;;;;;;;22.50;14.43;;;;;;;;;;5088512;28;20200;-83
2024/02/21 07:22:40;;;;;;;20.30;14.20;;;;;;;;;;5070801;28;20197;-84
2024/02/21 07:25:11;;;;;;;20.87;14.80;;;;;;;;;;5075912;28;20192;-84
2024/02/21 07:27:38;;;;;;;19.27;13.93;;;;;;;;;;5091293;28;20659;-85
2024/02/21 07:30:06;;;;;;;19.97;14.60;;;;;;;;;;5091131;28;20200;-84
2024/02/21 07:32:33;;;;;;;21.53;13.77;;;;;;;;;;5091392;28;20196;-84
2024/02/21 07:35:01;;;;;;;18.40;13.63;;;;;;;;;;5091308;28;20205;-84
2024/02/21 07:37:28;;;;;;;16.77;12.90;;;;;;;;;;5091530;28;20203;-85
2024/02/21 07:39:55;;;;;;;18.80;14.30;;;;;;;;;;5091194;28;20196;-84
2024/02/21 07:42:21;;;;;;;17.53;13.97;;;;;;;;;;5091115;28;20200;-84
2024/02/21 07:44:48;;;;;;;16.17;11.90;;;;;;;;;;5084506;28;20241;-84
2024/02/21 07:47:15;;;;;;;16.27;11.83;;;;;;;;;;5111078;28;20609;-84
2024/02/21 07:49:42;;;;;;;15.53;12.30;;;;;;;;;;5077147;28;20197;-84
2024/02/21 07:52:13;;;;;;;17.73;12.13;;;;;;;;;;5104309;28;20202;-86
2024/02/21 07:54:40;;;;;;;19.00;13.57;;;;;;;;;;5078452;28;20200;-85
2024/02/21 07:57:08;;;;;;;18.30;12.53;;;;;;;;;;5089792;28;20196;-84
2024/02/21 07:59:35;;;;;;;13.67;11.53;;;;;;;;;;5078273;28;20208;-84
2024/02/21 08:02:02;;;;;;;17.07;12.27;;;;;;;;;;5092465;28;20211;-84
2024/02/21 08:04:29;;;;;;;13.43;10.47;;;;;;;;;;5095542;28;20595;-86
2024/02/21 08:06:59;;;;;;;14.97;10.30;;;;;;;;;;5072475;28;20686;-85
2024/02/21 08:09:27;;;;;;;12.77;10.57;;;;;;;;;;5090947;28;20200;-85
2024/02/21 08:11:55;;;;;;;9.93;8.93;;;;;;;;;;5104186;28;20209;-84
2024/02/21 08:14:22;;;;;;;10.27;8.23;;;;;;;;;;5090909;28;20425;-83
2024/02/21 08:16:49;;;;;;;12.53;9.10;;;;;;;;;;5090650;28;20249;-85
2024/02/21 08:19:15;;;;;;;10.57;8.50;;;;;;;;;;5090694;28;20317;-84
2024/02/21 08:21:42;;;;;;;12.77;8.93;;;;;;;;;;5091261;28;20206;-85
2024/02/21 08:24:09;;;;;;;11.50;8.97;;;;;;;;;;5090600;28;20200;-85
2024/02/21 08:26:41;;;;;;;12.57;9.07;;;;;;;;;;5090602;28;20222;-84
2024/02/21 08:29:07;;;;;;;11.23;9.40;;;;;;;;;;5091141;28;20196;-85
2024/02/21 08:31:34;;;;;;;11.50;9.43;;;;;;;;;;5095967;28;20200;-85
2024/02/21 08:34:03;;;;;;;13.90;11.23;;;;;;;;;;5098833;28;20247;-84
2024/02/21 08:36:30;;;;;;;13.10;9.80;;;;;;;;;;5094623;28;20192;-84
2024/02/21 08:38:57;;;;;;;11.40;9.27;;;;;;;;;;5094451;28;20250;-85
2024/02/21 08:41:24;;;;;;;12.67;9.63;;;;;;;;;;5094313;28;20260;-84
2024/02/21 08:43:53;;;;;;;14.53;9.80;;;;;;;;;;5094240;28;20211;-84
2024/02/21 08:46:20;;;;;;;12.77;9.60;;;;;;;;;;5108254;28;20238;-85
2024/02/21 08:48:47;;;;;;;32.43;18.73;;;;;;;;;;5107226;28;20203;-85
2024/02/21 08:51:14;;;;;;;16.50;12.23;;;;;;;;;;5081214;28;20655;-84
2024/02/21 08:53:41;;;;;;;14.23;11.23;;;;;;;;;;5093852;28;20196;-85
2024/02/21 08:56:11;;;;;;;12.57;9.70;;;;;;;;;;5094015;28;20204;-84
2024/02/21 08:58:39;;;;;;;12.77;9.67;;;;;;;;;;5106923;28;20673;-85
2024/02/21 09:01:09;;;;;;;11.53;9.93;;;;;;;;;;5081820;28;20215;-84
2024/02/21 09:03:37;;;;;;;11.03;9.00;;;;;;;;;;5107263;28;20199;-85
2024/02/21 09:06:04;;;;;;;9.70;7.93;;;;;;;;;;5094189;28;20220;-85
2024/02/21 09:08:31;;;;;;;10.40;8.37;;;;;;;;;;5080022;28;20611;-85
2024/02/21 09:10:58;;;;;;;11.93;9.10;;;;;;;;;;5093354;28;20196;-84
2024/02/21 09:13:24;;;;;;;8.83;7.87;;;;;;;;;;5095639;28;20196;-84
2024/02/21 09:15:51;;;;;;;11.57;8.80;;;;;;;;;;5095922;28;20213;-84
2024/02/21 09:18:19;;;;;;;19.43;13.20;;;;;;;;;;5076447;28;20211;-85
2024/02/21 09:20:47;;;;;;;10.70;9.00;;;;;;;;;;5093277;28;20200;-85
2024/02/21 09:23:14;;;;;;;8.80;7.23;;;;;;;;;;5093941;28;20262;-85
2024/02/21 09:25:41;;;;;;;10.67;8.70;;;;;;;;;;5092717;28;20650;-86
2024/02/21 09:28:11;;;;;;;12.83;9.27;;;;;;;;;;5093276;28;20234;-84
2024/02/21 09:30:38;;;;;;;12.37;8.70;;;;;;;;;;5093686;28;20236;-84
2024/02/21 09:33:06;;;;;;;8.20;7.10;;;;;;;;;;5106412;28;20220;-84
2024/02/21 09:35:35;;;;;;;10.13;8.00;;;;;;;;;;5104344;28;20195;-84
2024/02/21 09:38:03;;;;;;;15.73;10.27;;;;;;;;;;5095584;28;20204;-85
2024/02/21 09:40:29;;;;;;;14.10;11.17;;;;;;;;;;5092960;28;20228;-84
2024/02/21 09:43:06;;;;;;;14.47;12.63;;;;;;;;;;5084033;28;20557;-85
2024/02/21 09:45:34;;;;;;;13.50;11.27;;;;;;;;;;5099889;28;20211;-84
2024/02/21 09:48:19;;;;;;;13.47;10.57;;;;;;;;;;5106110;28;20316;-84
2024/02/21 09:50:48;;;;;;;12.63;9.73;;;;;;;;;;5095492;28;20568;-84
2024/02/21 09:53:15;;;;;;;9.27;8.30;;;;;;;;;;5103773;28;20265;-84
2024/02/21 09:55:43;;;;;;;9.67;7.73;;;;;;;;;;5106395;28;20214;-85
2024/02/21 09:58:10;;;;;;;10.27;8.10;;;;;;;;;;5102535;28;20195;-85
2024/02/21 10:00:37;;;;;;;11.03;7.27;;;;;;;;;;5109795;28;20548;-84
2024/02/21 10:03:07;;;;;;;8.73;7.67;;;;;;;;;;5092914;28;20196;-84
2024/02/21 10:05:35;;;;;;;10.57;8.00;;;;;;;;;;5095750;28;20188;-84
2024/02/21 10:08:04;;;;;;;15.03;10.10;;;;;;;;;;5102396;28;20234;-84
2024/02/21 10:10:31;;;;;;;11.73;9.57;;;;;;;;;;5092864;28;20196;-84
2024/02/21 10:12:58;;;;;;;13.03;9.07;;;;;;;;;;5092623;28;20224;-84
2024/02/21 10:15:25;;;;;;;14.13;10.63;;;;;;;;;;5092835;28;20235;-85
2024/02/21 10:18:00;;;;;;;15.80;11.97;;;;;;;;;;5092729;28;20203;-84
2024/02/21 10:20:27;;;;;;;12.53;8.77;;;;;;;;;;5092621;28;20624;-84
2024/02/21 10:23:07;;;;;;;21.57;15.43;;;;;;;;;;5092425;28;20211;-84
2024/02/21 10:25:35;;;;;;;7.23;5.03;;;;;;;;;;5080894;28;20200;-84
2024/02/21 10:28:02;;;;;;;6.17;5.23;;;;;;;;;;5092055;28;20239;-84
2024/02/21 10:30:29;;;;;;;7.93;6.40;;;;;;;;;;5092382;28;20207;-84
2024/02/21 10:32:57;;;;;;;7.47;5.70;;;;;;;;;;5091484;28;20218;-84
2024/02/21 10:35:28;;;;;;;7.47;6.73;;;;;;;;;;5091930;28;20207;-84
2024/02/21 10:37:56;;;;;;;6.50;5.43;;;;;;;;;;5105526;28;20622;-85
2024/02/21 10:40:25;;;;;;;5.23;4.57;;;;;;;;;;5092260;28;20604;-85
2024/02/21 10:42:57;;;;;;;5.23;4.73;;;;;;;;;;5092162;28;20604;-86
2024/02/21 10:45:30;;;;;;;4.67;4.17;;;;;;;;;;5092029;28;20208;-84
2024/02/21 10:48:02;;;;;;;5.80;4.57;;;;;;;;;;5097394;28;20257;-85
2024/02/21 10:50:32;;;;;;;6.50;5.23;;;;;;;;;;5112267;28;20204;-85
2024/02/21 10:53:06;;;;;;;9.20;5.30;;;;;;;;;;5079504;28;20537;-84
2024/02/21 10:55:42;;;;;;;5.43;4.93;;;;;;;;;;5090950;28;20685;-86
2024/02/21 10:58:10;;;;;;;9.60;7.10;;;;;;;;;;5091553;28;20598;-84
2024/02/21 11:00:38;;;;;;;9.43;7.60;;;;;;;;;;5091373;28;20196;-84
2024/02/21 11:03:05;;;;;;;15.00;9.67;;;;;;;;;;5091759;28;20245;-84
2024/02/21 11:05:33;;;;;;;20.20;13.40;;;;;;;;;;5091697;28;20710;-84
2024/02/21 11:08:00;;;;;;;22.37;15.57;;;;;;;;;;5091464;28;20216;-84
2024/02/21 11:10:27;;;;;;;27.63;18.10;;;;;;;;;;5095197;28;20200;-84
2024/02/21 11:13:07;;;;;;;19.03;12.03;;;;;;;;;;5100832;28;20575;-84
2024/02/21 11:15:34;;;;;;;22.87;12.67;;;;;;;;;;5090840;28;20233;-84
2024/02/21 11:18:01;;;;;;;26.23;19.30;;;;;;;;;;5091300;28;20696;-84
2024/02/21 11:20:40;;;;;;;33.77;18.70;;;;;;;;;;5091287;28;20197;-84
2024/02/21 11:23:08;;;;;;;47.17;24.13;;;;;;;;;;5090749;28;20225;-84
2024/02/21 11:25:35;;;;;;;41.17;19.27;;;;;;;;;;5091283;28;20204;-84
2024/02/21 11:28:05;;;;;;;24.80;16.83;;;;;;;;;;5104407;28;20223;-84
2024/02/21 11:30:32;;;;;;;55.03;26.13;;;;;;;;;;5082586;28;20213;-85
2024/02/21 11:33:03;;;;;;;47.30;24.63;;;;;;;;;;5087180;28;20235;-83
2024/02/21 11:35:33;;;;;;;38.40;22.60;;;;;;;;;;5091201;28;20637;-84
2024/02/21 11:38:10;;;;;;;51.47;25.73;;;;;;;;;;5077533;28;20234;-84
2024/02/21 11:40:40;;;;;;;25.93;15.60;;;;;;;;;;5091241;28;20275;-84
2024/02/21 11:43:09;;;;;;;55.23;32.57;;;;;;;;;;5091011;28;20235;-84
2024/02/21 11:45:36;;;;;;;76.03;46.17;;;;;;;;;;5104651;28;20264;-84
2024/02/21 11:48:05;;;;;;;44.33;32.87;;;;;;;;;;5078145;28;20243;-84
2024/02/21 11:50:33;;;;;;;25.50;18.60;;;;;;;;;;5090766;28;20278;-84
2024/02/21 11:52:59;;;;;;;18.30;13.33;;;;;;;;;;5090931;28;20709;-84
2024/02/21 11:55:27;;;;;;;24.50;17.50;;;;;;;;;;5091567;28;20199;-84
2024/02/21 11:57:54;;;;;;;18.23;13.10;;;;;;;;;;5103151;28;20666;-84
2024/02/21 12:00:24;;;;;;;14.60;11.97;;;;;;;;;;5090868;28;20574;-84
2024/02/21 12:02:51;;;;;;;21.37;14.73;;;;;;;;;;5099656;28;20191;-84
2024/02/21 12:05:20;;;;;;;16.13;11.63;;;;;;;;;;5094573;28;20625;-84
2024/02/21 12:07:47;;;;;;;14.30;11.70;;;;;;;;;;5091028;28;20215;-84
2024/02/21 12:10:14;;;;;;;17.87;13.23;;;;;;;;;;5108156;28;20200;-84
2024/02/21 12:12:41;;;;;;;18.83;13.50;;;;;;;;;;5094766;28;20204;-85
2024/02/21 12:15:09;;;;;;;21.70;16.37;;;;;;;;;;5094213;28;20203;-84
2024/02/21 12:17:38;;;;;;;23.43;16.10;;;;;;;;;;5085542;28;20691;-84
2024/02/21 12:20:08;;;;;;;17.80;12.50;;;;;;;;;;5107772;28;20200;-83
2024/02/21 12:22:37;;;;;;;14.50;11.80;;;;;;;;;;5104250;28;20234;-84
2024/02/21 12:25:07;;;;;;;12.77;8.97;;;;;;;;;;5095030;28;20565;-84
2024/02/21 12:27:34;;;;;;;13.53;9.30;;;;;;;;;;5106820;28;20253;-84
2024/02/21 12:30:01;;;;;;;10.87;8.83;;;;;;;;;;5109471;28;20196;-84
2024/02/21 12:32:27;;;;;;;12.27;9.20;;;;;;;;;;5107046;28;20203;-84
2024/02/21 12:34:56;;;;;;;14.70;9.87;;;;;;;;;;5100753;28;20699;-85
2024/02/21 12:37:23;;;;;;;14.13;9.40;;;;;;;;;;5089386;28;20248;-84
2024/02/21 12:39:50;;;;;;;47.13;26.73;;;;;;;;;;5100024;28;20200;-84
2024/02/21 12:42:17;;;;;;;25.17;16.93;;;;;;;;;;5102199;28;20207;-85
2024/02/21 12:44:44;;;;;;;11.67;9.50;;;;;;;;;;5114194;28;20208;-84
2024/02/21 12:47:11;;;;;;;12.37;10.40;;;;;;;;;;5088367;28;20231;-84
2024/02/21 12:49:40;;;;;;;12.80;10.17;;;;;;;;;;5114379;28;20207;-84
2024/02/21 12:52:09;;;;;;;14.70;11.53;;;;;;;;;;5100178;28;20773;-84
2024/02/21 12:54:36;;;;;;;8.83;7.63;;;;;;;;;;5101729;28;20383;-83
2024/02/21 12:57:03;;;;;;;13.33;9.47;;;;;;;;;;5099648;28;20205;-84
2024/02/21 12:59:30;;;;;;;9.97;8.47;;;;;;;;;;5094189;28;20270;-84
2024/02/21 13:01:57;;;;;;;7.33;6.63;;;;;;;;;;5093907;28;20204;-84
2024/02/21 13:04:24;;;;;;;10.20;7.70;;;;;;;;;;5094239;28;20212;-85
2024/02/21 13:06:50;;;;;;;10.07;7.90;;;;;;;;;;5092383;28;20262;-84
2024/02/21 13:09:19;;;;;;;8.07;7.13;;;;;;;;;;5073835;28;20204;-84
2024/02/21 13:11:46;;;;;;;10.43;8.37;;;;;;;;;;5100538;28;20256;-84
2024/02/21 13:14:13;;;;;;;13.07;10.10;;;;;;;;;;5082768;28;20551;-83
2024/02/21 13:16:40;;;;;;;9.10;7.70;;;;;;;;;;5096520;28;20544;-84
2024/02/21 13:19:09;;;;;;;9.67;8.40;;;;;;;;;;5104255;28;20219;-84
2024/02/21 13:21:36;;;;;;;10.40;7.80;;;;;;;;;;5088760;28;20201;-84
2024/02/21 13:24:04;;;;;;;13.63;10.97;;;;;;;;;;5094720;28;20212;-84
2024/02/21 13:26:32;;;;;;;12.43;11.13;;;;;;;;;;5100659;28;20539;-84
2024/02/21 13:28:58;;;;;;;15.17;13.57;;;;;;;;;;5102797;28;20224;-85
2024/02/21 13:31:26;;;;;;;16.20;11.90;;;;;;;;;;5097863;28;20192;-84
2024/02/21 13:33:53;;;;;;;40.83;29.40;;;;;;;;;;5102480;28;20248;-85
2024/02/21 13:36:20;;;;;;;18.83;14.57;;;;;;;;;;5093263;28;20196;-85
2024/02/21 13:38:47;;;;;;;34.30;21.87;;;;;;;;;;5093176;28;20249;-84
2024/02/21 13:41:13;;;;;;;20.70;15.17;;;;;;;;;;5097108;28;20248;-84
2024/02/21 13:43:41;;;;;;;13.70;10.30;;;;;;;;;;5102198;28;20551;-85
2024/02/21 13:46:11;;;;;;;13.20;10.53;;;;;;;;;;5093496;28;20208;-83
2024/02/21 13:48:39;;;;;;;22.80;17.90;;;;;;;;;;5093077;28;20220;-85
2024/02/21 13:51:06;;;;;;;32.93;22.23;;;;;;;;;;5106377;28;20200;-85
2024/02/21 13:53:34;;;;;;;12.97;9.37;;;;;;;;;;5080381;28;20604;-85
2024/02/21 13:56:00;;;;;;;20.10;16.47;;;;;;;;;;5098722;28;20192;-84
2024/02/21 13:58:27;;;;;;;10.90;9.73;;;;;;;;;;5099621;28;20197;-84
2024/02/21 14:00:56;;;;;;;13.57;10.23;;;;;;;;;;5099141;28;20704;-84
2024/02/21 14:03:23;;;;;;;12.33;8.87;;;;;;;;;;5099651;28;20662;-87
2024/02/21 14:05:50;;;;;;;18.63;14.37;;;;;;;;;;5092337;28;20366;-85
2024/02/21 14:08:17;;;;;;;11.73;9.37;;;;;;;;;;5092410;28;20702;-84
2024/02/21 14:10:43;;;;;;;27.23;20.73;;;;;;;;;;5092591;28;20667;-83
2024/02/21 14:13:11;;;;;;;9.30;8.30;;;;;;;;;;5093181;28;20215;-84
2024/02/21 14:15:40;;;;;;;9.57;8.00;;;;;;;;;;5097434;28;20192;-84
2024/02/21 14:18:12;;;;;;;11.57;8.40;;;;;;;;;;5086944;28;20253;-84
2024/02/21 14:20:42;;;;;;;9.50;8.17;;;;;;;;;;5092714;28;20207;-84
2024/02/21 14:23:09;;;;;;;15.50;12.87;;;;;;;;;;5092115;28;20200;-83